createdAt,value
2019-03-15T00:00:15.294Z,0.738
2019-03-15T00:03:15.186Z,1.675
2019-03-15T00:06:15.879Z,1.075
2019-03-15T00:09:15.556Z,0.775
2019-03-15T00:12:15.280Z,0.662
2019-03-15T00:15:14.958Z,0.375
2019-03-15T00:18:15.543Z,0.713
2019-03-15T00:21:15.171Z,2.038
2019-03-15T00:24:15.064Z,0.238
2019-03-15T00:27:15.762Z,0.912
2019-03-15T00:30:15.495Z,1.312
2019-03-15T00:33:15.261Z,4.062
2019-03-15T00:36:15.933Z,0.988
2019-03-15T00:39:15.442Z,4.013
2019-03-15T00:42:14.943Z,0.737
2019-03-15T00:45:15.541Z,0.425
2019-03-15T00:48:15.119Z,1.087
2019-03-15T00:51:14.963Z,0.462
2019-03-15T00:54:15.578Z,1.075
2019-03-15T00:57:15.215Z,0.288
2019-03-15T01:00:15.723Z,0.662
2019-03-15T01:03:15.226Z,0.325
2019-03-15T01:06:15.789Z,0.575
2019-03-15T01:09:15.532Z,1.275
2019-03-15T01:12:15.131Z,0.700
2019-03-15T01:18:15.465Z,1.288
2019-03-15T01:21:15.113Z,1.050
2019-03-15T01:24:15.819Z,0.713
2019-03-15T01:27:15.363Z,0.525
2019-03-15T01:30:15.063Z,0.625
2019-03-15T01:33:15.799Z,3.800
2019-03-15T01:36:15.466Z,1.075
2019-03-15T01:39:15.261Z,1.413
2019-03-15T01:42:15.958Z,0.500
2019-03-15T01:45:15.649Z,1.100
2019-03-15T01:48:15.299Z,0.562
2019-03-15T01:51:15.487Z,1.737
2019-03-15T01:54:15.329Z,0.387
2019-03-15T01:57:15.011Z,0.850
2019-03-15T02:00:15.751Z,0.500
2019-03-15T02:03:15.549Z,0.825
2019-03-15T02:06:15.159Z,1.062
2019-03-15T02:09:15.824Z,0.275
2019-03-15T02:12:15.668Z,0.875
2019-03-15T02:15:15.395Z,1.075
2019-03-15T02:18:15.193Z,1.350
2019-03-15T02:21:15.898Z,1.725
2019-03-15T02:24:15.498Z,0.863
2019-03-15T02:27:15.200Z,0.750
2019-03-15T02:30:14.981Z,1.225
2019-03-15T02:33:15.615Z,0.525
2019-03-15T02:36:15.606Z,0.525
2019-03-15T02:39:15.277Z,0.450
2019-03-15T02:42:15.040Z,0.713
2019-03-15T02:45:15.703Z,0.675
2019-03-15T02:48:15.544Z,1.738
2019-03-15T02:51:15.231Z,1.038
2019-03-15T02:54:15.752Z,0.475
2019-03-15T02:57:15.420Z,0.338
2019-03-15T03:00:15.078Z,0.962
2019-03-15T03:03:15.845Z,1.275
2019-03-15T03:06:15.631Z,1.450
2019-03-15T03:09:15.556Z,1.113
2019-03-15T03:12:15.220Z,1.600
2019-03-15T03:15:14.991Z,0.600
2019-03-15T03:18:15.744Z,1.087
2019-03-15T03:21:15.531Z,0.488
2019-03-15T03:24:15.240Z,0.537
2019-03-15T03:27:15.840Z,1.112
2019-03-15T03:30:17.151Z,1.513
2019-03-15T03:33:15.361Z,0.612
2019-03-15T03:36:15.268Z,1.137
2019-03-15T03:39:15.031Z,1.325
2019-03-15T03:42:15.795Z,1.763
2019-03-15T03:45:15.453Z,3.062
2019-03-15T03:48:15.855Z,0.500
2019-03-15T03:51:15.940Z,1.712
2019-03-15T03:54:15.823Z,0.388
2019-03-15T03:57:15.064Z,3.388
2019-03-15T04:00:15.873Z,0.500
2019-03-15T04:03:15.721Z,0.637
2019-03-15T04:06:15.472Z,2.750
2019-03-15T04:09:15.150Z,1.613
2019-03-15T04:12:15.942Z,1.150
2019-03-15T04:15:15.569Z,1.337
2019-03-15T04:18:15.364Z,0.525
2019-03-15T04:21:15.238Z,0.737
2019-03-15T04:24:15.037Z,1.663
2019-03-15T04:27:15.572Z,1.000
2019-03-15T04:30:15.366Z,3.000
2019-03-15T04:33:15.052Z,2.675
2019-03-15T04:36:15.838Z,1.775
2019-03-15T04:39:15.612Z,1.188
2019-03-15T04:42:15.263Z,2.588
2019-03-15T04:45:15.925Z,1.588
2019-03-15T04:48:15.748Z,1.312
2019-03-15T04:51:15.620Z,1.675
2019-03-15T04:54:15.270Z,1.200
2019-03-15T04:57:14.949Z,2.750
2019-03-15T05:00:15.663Z,1.550
2019-03-15T05:03:15.415Z,1.725
2019-03-15T05:06:15.113Z,0.463
2019-03-15T05:09:15.767Z,2.175
2019-03-15T05:12:15.640Z,0.700
2019-03-15T05:15:15.241Z,0.963
2019-03-15T05:18:15.001Z,1.250
2019-03-15T05:21:15.710Z,1.562
2019-03-15T05:24:15.368Z,0.862
2019-03-15T05:27:15.495Z,0.900
2019-03-15T05:30:15.143Z,2.513
2019-03-15T05:33:15.880Z,1.200
2019-03-15T05:36:15.612Z,1.212
2019-03-15T05:39:15.456Z,0.775
2019-03-15T05:42:15.251Z,1.800
2019-03-15T05:45:15.925Z,6.050
2019-03-15T05:48:15.604Z,3.450
2019-03-15T05:51:15.239Z,0.775
2019-03-15T05:54:15.093Z,1.163
2019-03-15T05:57:15.060Z,1.062
2019-03-15T06:00:15.990Z,1.962
2019-03-15T06:03:15.877Z,1.350
2019-03-15T06:06:15.690Z,2.675
2019-03-15T06:09:15.491Z,1.512
2019-03-15T06:12:15.352Z,1.475
2019-03-15T06:15:15.310Z,0.938
2019-03-15T06:18:15.107Z,1.350
2019-03-15T06:21:15.928Z,1.100
2019-03-15T06:24:15.786Z,3.750
2019-03-15T06:27:15.829Z,4.925
2019-03-15T06:30:15.198Z,3.550
2019-03-15T06:33:15.146Z,1.538
2019-03-15T06:36:15.708Z,0.938
2019-03-15T06:39:15.654Z,2.725
2019-03-15T06:42:15.450Z,5.075
2019-03-15T06:45:15.179Z,4.113
2019-03-15T06:48:15.373Z,2.638
2019-03-15T06:51:15.014Z,2.000
2019-03-15T06:54:15.008Z,4.800
2019-03-15T06:57:15.779Z,3.137
2019-03-15T07:00:15.551Z,1.462
2019-03-15T07:03:15.546Z,3.638
2019-03-15T07:06:15.452Z,2.575
2019-03-15T07:09:15.211Z,2.625
2019-03-15T07:12:15.758Z,1.488
2019-03-15T07:15:15.462Z,3.375
2019-03-15T07:18:18.483Z,1.825
2019-03-15T07:21:15.107Z,1.612
2019-03-15T07:24:24.969Z,2.875
2019-03-15T07:27:15.224Z,4.500
2019-03-15T07:30:15.556Z,3.463
2019-03-15T07:33:15.310Z,1.963
2019-03-15T07:36:15.169Z,1.125
2019-03-15T07:39:15.047Z,2.262
2019-03-15T08:03:15.658Z,1.650
2019-03-15T08:12:15.728Z,2.513
2019-03-15T08:18:14.986Z,4.562
2019-03-15T08:24:15.270Z,2.750
2019-03-15T08:27:16.230Z,0.825
2019-03-15T08:30:15.038Z,1.675
2019-03-15T08:33:15.728Z,1.863
2019-03-15T08:36:15.470Z,1.400
2019-03-15T08:39:15.139Z,2.900
2019-03-15T08:42:15.884Z,3.038
2019-03-15T08:45:15.973Z,1.650
2019-03-15T08:48:15.549Z,1.500
2019-03-15T08:54:15.157Z,0.775
2019-03-15T08:57:15.872Z,1.650
2019-03-15T09:03:27.203Z,4.050
2019-03-15T09:06:15.183Z,2.600
2019-03-15T09:09:15.955Z,2.050
2019-03-15T09:12:15.935Z,1.137
2019-03-15T09:18:15.295Z,1.325
2019-03-15T09:21:15.144Z,0.800
2019-03-15T09:24:15.998Z,1.200
2019-03-15T09:27:15.944Z,1.212
2019-03-15T09:30:23.366Z,1.025
2019-03-15T09:33:14.936Z,2.100
2019-03-15T09:39:15.077Z,0.575
2019-03-15T09:42:15.907Z,0.300
2019-03-15T09:45:15.659Z,0.188
2019-03-15T09:48:15.508Z,0.287
2019-03-15T09:51:15.269Z,0.262
2019-03-15T09:54:15.243Z,0.350
2019-03-15T09:57:15.139Z,0.263
2019-03-15T10:00:15.065Z,0.400
2019-03-15T10:03:22.072Z,1.962
2019-03-15T10:06:19.296Z,0.287
2019-03-15T10:09:15.579Z,0.188
2019-03-15T10:12:15.227Z,0.163
2019-03-15T10:15:16.006Z,0.200
2019-03-15T10:18:15.921Z,0.175
2019-03-15T10:21:15.871Z,0.175
2019-03-15T10:24:15.945Z,0.200
2019-03-15T10:27:16.003Z,0.363
2019-03-15T10:30:15.805Z,0.200
2019-03-15T10:33:15.679Z,0.163
2019-03-15T10:36:15.551Z,0.250
2019-03-15T10:39:15.172Z,0.238
2019-03-15T10:42:15.288Z,0.150
2019-03-15T10:45:15.000Z,0.200
2019-03-15T10:48:25.095Z,0.100
2019-03-15T10:51:15.520Z,0.213
2019-03-15T10:54:15.429Z,0.200
2019-03-15T10:57:15.450Z,0.188
2019-03-15T11:00:15.441Z,0.200
2019-03-15T11:03:15.897Z,0.200
2019-03-15T11:06:15.370Z,0.150
2019-03-15T11:09:15.957Z,0.250
2019-03-15T11:12:15.767Z,0.163
2019-03-15T11:15:17.012Z,0.113
2019-03-15T11:18:16.059Z,0.163
2019-03-15T11:21:15.962Z,0.200
2019-03-15T11:24:15.485Z,0.163
2019-03-15T11:27:15.220Z,0.138
2019-03-15T11:30:15.269Z,0.188
2019-03-15T11:33:15.116Z,0.100
2019-03-15T11:36:15.962Z,0.200
2019-03-15T11:39:15.675Z,0.188
2019-03-15T11:42:15.506Z,0.200
2019-03-15T11:45:15.245Z,0.163
2019-03-15T11:48:15.424Z,0.200
2019-03-15T11:51:15.136Z,0.188
2019-03-15T11:54:15.820Z,0.163
2019-03-15T11:57:15.810Z,0.188
2019-03-15T12:00:15.729Z,0.175
2019-03-15T12:03:15.467Z,0.175
2019-03-15T12:06:15.311Z,0.325
2019-03-15T12:09:15.252Z,0.200
2019-03-15T12:12:15.026Z,0.125
2019-03-15T12:15:15.840Z,0.150
2019-03-15T12:18:15.812Z,0.200
2019-03-15T12:21:21.242Z,0.188
2019-03-15T12:24:15.086Z,0.200
2019-03-15T12:27:18.545Z,0.350
2019-03-15T12:30:16.167Z,0.175
2019-03-15T12:33:15.784Z,0.300
2019-03-15T12:36:15.635Z,0.175
2019-03-15T12:39:15.429Z,0.275
2019-03-15T12:42:15.361Z,0.150
2019-03-15T12:45:15.125Z,0.100
2019-03-15T12:48:15.866Z,0.188
2019-03-15T12:54:15.903Z,0.200
2019-03-15T12:57:15.774Z,0.200
2019-03-15T13:00:15.468Z,0.175
2019-03-15T13:03:15.275Z,0.200
2019-03-15T13:15:15.078Z,0.163
2019-03-15T13:21:15.380Z,0.238
2019-03-15T13:27:15.742Z,0.188
2019-03-15T13:30:15.057Z,0.150
2019-03-15T13:33:20.927Z,0.175
2019-03-15T13:39:15.578Z,0.113
2019-03-15T13:45:15.764Z,0.188
2019-03-15T13:54:15.124Z,0.188
2019-03-15T14:03:15.134Z,0.188
2019-03-15T14:06:15.324Z,0.088
2019-03-15T14:09:15.241Z,0.188
2019-03-15T14:12:14.995Z,0.188
2019-03-15T14:15:15.818Z,0.200
2019-03-15T14:18:15.774Z,0.188
2019-03-15T14:21:15.556Z,0.250
2019-03-15T14:24:15.476Z,0.188
2019-03-15T14:27:15.318Z,0.175
2019-03-15T14:30:15.557Z,0.325
2019-03-15T14:33:15.646Z,0.138
2019-03-15T14:36:15.446Z,0.213
2019-03-15T14:39:15.208Z,0.200
2019-03-15T14:42:15.492Z,0.188
2019-03-15T14:45:15.848Z,0.275
2019-03-15T14:48:15.866Z,0.263
2019-03-15T14:51:15.997Z,0.813
2019-03-15T14:54:15.872Z,0.250
2019-03-15T14:57:15.728Z,0.200
2019-03-15T15:00:15.678Z,0.200
2019-03-15T15:03:15.440Z,0.200
2019-03-15T15:06:15.204Z,0.200
2019-03-15T15:09:15.134Z,0.812
2019-03-15T15:12:15.836Z,0.200
2019-03-15T15:15:15.757Z,0.200
2019-03-15T15:18:15.623Z,0.200
2019-03-15T15:21:15.386Z,0.200
2019-03-15T15:24:15.258Z,0.200
2019-03-15T15:27:15.134Z,0.200
2019-03-15T15:30:16.952Z,0.225
2019-03-15T15:33:15.825Z,0.188
2019-03-15T15:39:15.439Z,0.113
2019-03-15T15:42:15.342Z,0.175
2019-03-15T15:45:15.196Z,0.163
2019-03-15T15:48:15.755Z,0.188
2019-03-15T15:51:15.794Z,0.200
2019-03-15T15:54:15.627Z,0.125
2019-03-15T15:57:15.446Z,0.138
2019-03-15T16:00:15.264Z,0.188
2019-03-15T16:03:15.120Z,0.175
2019-03-15T16:06:15.096Z,0.125
2019-03-15T16:09:15.825Z,0.175
2019-03-15T16:12:15.678Z,0.275
2019-03-15T16:15:15.571Z,0.188
2019-03-15T16:18:15.492Z,0.175
2019-03-15T16:21:15.490Z,0.200
2019-03-15T16:24:15.396Z,0.100
2019-03-15T16:27:15.090Z,0.150
2019-03-15T16:30:15.864Z,0.125
2019-03-15T16:33:15.814Z,0.287
2019-03-15T16:36:15.639Z,0.212
2019-03-15T16:39:15.443Z,0.237
2019-03-15T16:42:15.146Z,0.163
2019-03-15T16:45:15.345Z,0.113
2019-03-15T16:48:15.247Z,0.113
2019-03-15T16:51:19.835Z,0.250
2019-03-15T16:54:15.138Z,0.287
2019-03-15T16:57:15.803Z,0.175
2019-03-15T17:00:15.722Z,0.163
2019-03-15T17:03:15.558Z,0.213
2019-03-15T17:06:15.306Z,0.100
2019-03-15T17:09:15.011Z,0.125
2019-03-15T17:12:15.848Z,0.125
2019-03-15T17:15:15.767Z,0.250
2019-03-15T17:18:15.762Z,0.100
2019-03-15T17:21:15.726Z,0.100
2019-03-15T17:24:15.500Z,0.200
2019-03-15T17:27:15.159Z,0.200
2019-03-15T17:30:15.100Z,0.200
2019-03-15T17:33:15.907Z,0.188
2019-03-15T17:36:15.709Z,0.163
2019-03-15T17:39:15.435Z,0.225
2019-03-15T17:42:15.213Z,0.150
2019-03-15T17:45:15.200Z,0.175
2019-03-15T17:48:15.794Z,0.100
2019-03-15T17:51:15.674Z,0.500
2019-03-15T17:54:15.355Z,0.163
2019-03-15T17:57:15.030Z,0.188
2019-03-15T18:00:15.963Z,0.175
2019-03-15T18:03:21.191Z,0.200
2019-03-15T18:06:15.716Z,0.100
2019-03-15T18:09:15.363Z,0.188
2019-03-15T18:12:15.068Z,0.188
2019-03-15T18:15:15.908Z,0.163
2019-03-15T18:18:15.783Z,0.200
2019-03-15T18:21:15.739Z,0.188
2019-03-15T18:24:15.626Z,0.100
2019-03-15T18:27:15.359Z,0.213
2019-03-15T18:30:15.216Z,0.125
2019-03-15T18:33:15.138Z,0.150
2019-03-15T18:36:15.881Z,0.138
2019-03-15T18:39:15.792Z,0.387
2019-03-15T18:42:15.649Z,0.263
2019-03-15T18:45:15.584Z,0.175
2019-03-15T18:48:15.539Z,0.438
2019-03-15T18:51:15.345Z,0.200
2019-03-15T18:54:17.625Z,0.150
2019-03-15T18:57:15.705Z,0.200
2019-03-15T19:00:15.359Z,0.525
2019-03-15T19:03:15.181Z,0.200
2019-03-15T19:06:15.846Z,0.362
2019-03-15T19:09:15.647Z,0.200
2019-03-15T19:12:15.346Z,0.175
2019-03-15T19:15:14.956Z,0.150
2019-03-15T19:18:15.764Z,0.200
2019-03-15T19:21:15.226Z,0.188
2019-03-15T19:24:15.907Z,0.188
2019-03-15T19:27:15.591Z,0.275
2019-03-15T19:30:15.374Z,0.175
2019-03-15T19:33:15.176Z,0.075
2019-03-15T19:36:15.766Z,0.237
2019-03-15T19:39:15.477Z,0.312
2019-03-15T19:42:15.000Z,0.188
2019-03-15T19:45:15.611Z,0.100
2019-03-15T19:48:15.306Z,0.537
2019-03-15T19:51:15.968Z,0.312
2019-03-15T19:54:15.735Z,0.363
2019-03-15T19:57:15.581Z,0.325
2019-03-15T20:00:15.348Z,0.238
2019-03-15T20:03:15.938Z,0.175
2019-03-15T20:06:15.331Z,0.200
2019-03-15T20:09:15.041Z,0.138
2019-03-15T20:12:15.759Z,0.188
2019-03-15T20:15:15.507Z,0.200
2019-03-15T20:18:15.357Z,0.287
2019-03-15T20:21:15.035Z,0.188
2019-03-15T20:24:15.799Z,0.200
2019-03-15T20:27:15.378Z,0.175
2019-03-15T20:30:21.049Z,0.200
2019-03-15T20:33:15.235Z,0.200
2019-03-15T20:36:15.472Z,0.200
2019-03-15T20:39:15.098Z,0.163
2019-03-15T20:42:14.979Z,0.287
2019-03-15T20:45:15.664Z,0.200
2019-03-15T20:48:15.584Z,0.263
2019-03-15T20:51:15.057Z,0.138
2019-03-15T20:54:15.690Z,0.438
2019-03-15T20:57:15.451Z,0.200
2019-03-15T21:00:15.058Z,0.188
2019-03-15T21:03:15.789Z,0.163
2019-03-15T21:06:15.568Z,0.213
2019-03-15T21:09:15.345Z,0.250
2019-03-15T21:12:15.056Z,0.263
2019-03-15T21:15:15.874Z,0.225
2019-03-15T21:18:15.612Z,0.287
2019-03-15T21:21:15.376Z,0.200
2019-03-15T21:24:15.163Z,0.400
2019-03-15T21:27:15.952Z,0.200
2019-03-15T21:30:15.664Z,0.175
2019-03-15T21:33:15.486Z,0.200
2019-03-15T21:36:15.076Z,0.225
2019-03-15T21:39:15.625Z,0.188
2019-03-15T21:42:15.504Z,0.200
2019-03-15T21:45:15.270Z,0.163
2019-03-15T21:48:15.923Z,0.188
2019-03-15T21:51:15.643Z,0.150
2019-03-15T21:57:15.892Z,0.150
2019-03-15T22:03:15.181Z,0.200
2019-03-15T22:18:15.871Z,0.200
2019-03-15T22:39:15.433Z,0.225
2019-03-15T23:15:15.583Z,0.100
2019-03-15T23:21:15.865Z,0.188
2019-03-15T23:30:15.505Z,0.825
2019-03-15T23:51:15.092Z,0.200
2019-03-15T23:54:15.646Z,0.200
2019-03-15T23:57:15.080Z,0.287
